sensor_id;sensor_type;location;lat;lon;timestamp;pressure;altitude;pressure_sealevel;temperature;humidity
10006;BME280;5042;42.626;23.382;2023-05-09T00:01:30;94654.22;;;14.21;100.00
10006;BME280;5042;42.626;23.382;2023-05-09T00:03:56;94602.75;;;13.85;100.00
10006;BME280;5042;42.626;23.382;2023-05-09T00:06:24;94638.44;;;14.08;100.00
10006;BME280;5042;42.626;23.382;2023-05-09T00:08:52;94649.78;;;14.08;100.00
10006;BME280;5042;42.626;23.382;2023-05-09T00:11:18;94650.19;;;14.12;100.00
10006;BME280;5042;42.626;23.382;2023-05-09T00:13:46;94647.13;;;14.15;100.00
10006;BME280;5042;42.626;23.382;2023-05-09T00:16:13;94657.50;;;14.10;100.00
10006;BME280;5042;42.626;23.382;2023-05-09T00:18:41;94649.78;;;14.08;100.00
10006;BME280;5042;42.626;23.382;2023-05-09T00:21:09;94652.59;;;14.13;100.00
10006;BME280;5042;42.626;23.382;2023-05-09T00:23:36;94657.69;;;14.02;100.00
10006;BME280;5042;42.626;23.382;2023-05-09T00:26:03;94644.72;;;14.00;100.00
10006;BME280;5042;42.626;23.382;2023-05-09T00:28:29;94646.53;;;14.13;100.00
10006;BME280;5042;42.626;23.382;2023-05-09T00:30:56;94630.91;;;14.18;100.00
10006;BME280;5042;42.626;23.382;2023-05-09T00:33:23;94632.31;;;14.14;100.00
10006;BME280;5042;42.626;23.382;2023-05-09T00:35:52;94637.41;;;14.09;100.00
10006;BME280;5042;42.626;23.382;2023-05-09T00:38:19;94643.28;;;14.17;100.00
10006;BME280;5042;42.626;23.382;2023-05-09T00:40:46;94636.78;;;14.20;100.00
10006;BME280;5042;42.626;23.382;2023-05-09T00:43:13;94635.56;;;14.16;100.00
10006;BME280;5042;42.626;23.382;2023-05-09T00:45:41;94628.69;;;14.08;100.00
10006;BME280;5042;42.626;23.382;2023-05-09T00:48:08;94640.22;;;14.14;100.00
10006;BME280;5042;42.626;23.382;2023-05-09T00:50:35;94640.63;;;14.11;100.00
10006;BME280;5042;42.626;23.382;2023-05-09T00:53:04;94649.16;;;14.06;100.00
10006;BME280;5042;42.626;23.382;2023-05-09T00:55:31;94637.41;;;14.09;100.00
10006;BME280;5042;42.626;23.382;2023-05-09T00:57:57;94629.09;;;13.98;100.00
10006;BME280;5042;42.626;23.382;2023-05-09T01:00:24;94638.44;;;14.08;100.00
10006;BME280;5042;42.626;23.382;2023-05-09T01:02:53;94652.00;;;14.05;100.00
10006;BME280;5042;42.626;23.382;2023-05-09T01:05:21;94644.50;;;14.02;100.00
10006;BME280;5042;42.626;23.382;2023-05-09T01:07:56;94647.75;;;14.04;100.00
10006;BME280;5042;42.626;23.382;2023-05-09T01:10:32;94624.44;;;13.87;100.00
10006;BME280;5042;42.626;23.382;2023-05-09T01:13:03;94643.28;;;13.97;100.00
10006;BME280;5042;42.626;23.382;2023-05-09T01:15:35;94649.97;;;14.07;100.00
10006;BME280;5042;42.626;23.382;2023-05-09T01:18:16;94654.63;;;14.05;100.00
10006;BME280;5042;42.626;23.382;2023-05-09T01:20:50;94647.56;;;14.05;100.00
10006;BME280;5042;42.626;23.382;2023-05-09T01:26:19;94629.72;;;13.94;100.00
10006;BME280;5042;42.626;23.382;2023-05-09T01:31:57;94650.00;;;14.00;100.00
10006;BME280;5042;42.626;23.382;2023-05-09T01:34:25;94642.66;;;14.02;100.00
10006;BME280;5042;42.626;23.382;2023-05-09T01:36:55;94645.53;;;14.07;100.00
10006;BME280;5042;42.626;23.382;2023-05-09T01:39:24;94643.28;;;14.11;100.00
10006;BME280;5042;42.626;23.382;2023-05-09T01:41:55;94638.44;;;14.14;100.00
10006;BME280;5042;42.626;23.382;2023-05-09T01:44:24;94646.34;;;14.14;100.00
10006;BME280;5042;42.626;23.382;2023-05-09T01:46:53;94644.50;;;14.15;100.00
10006;BME280;5042;42.626;23.382;2023-05-09T01:49:22;94637.81;;;14.19;100.00
10006;BME280;5042;42.626;23.382;2023-05-09T01:51:51;94647.72;;;14.24;100.00
10006;BME280;5042;42.626;23.382;2023-05-09T01:54:21;94643.09;;;14.19;100.00
10006;BME280;5042;42.626;23.382;2023-05-09T01:56:50;94648.16;;;14.00;100.00
10006;BME280;5042;42.626;23.382;2023-05-09T01:59:19;94645.09;;;13.97;100.00
10006;BME280;5042;42.626;23.382;2023-05-09T02:01:46;94643.69;;;13.88;100.00
10006;BME280;5042;42.626;23.382;2023-05-09T02:04:14;94644.72;;;13.67;100.00
10006;BME280;5042;42.626;23.382;2023-05-09T02:06:46;94639.22;;;13.48;100.00
10006;BME280;5042;42.626;23.382;2023-05-09T02:09:15;94642.25;;;13.52;100.00
10006;BME280;5042;42.626;23.382;2023-05-09T02:11:43;94641.47;;;13.58;100.00
10006;BME280;5042;42.626;23.382;2023-05-09T02:14:09;94642.69;;;13.62;100.00
10006;BME280;5042;42.626;23.382;2023-05-09T02:16:36;94644.91;;;13.72;100.00
10006;BME280;5042;42.626;23.382;2023-05-09T02:19:04;94651.63;;;13.81;100.00
10006;BME280;5042;42.626;23.382;2023-05-09T02:21:31;94621.38;;;13.64;100.00
10006;BME280;5042;42.626;23.382;2023-05-09T02:23:59;94636.19;;;13.85;100.00
10006;BME280;5042;42.626;23.382;2023-05-09T02:26:27;94637.22;;;13.84;100.00
10006;BME280;5042;42.626;23.382;2023-05-09T02:28:54;94643.69;;;13.88;100.00
10006;BME280;5042;42.626;23.382;2023-05-09T02:31:24;94639.25;;;13.88;100.00
10006;BME280;5042;42.626;23.382;2023-05-09T02:33:53;94637.59;;;13.87;100.00
10006;BME280;5042;42.626;23.382;2023-05-09T02:36:21;94629.91;;;13.66;100.00
10006;BME280;5042;42.626;23.382;2023-05-09T02:38:48;94645.31;;;13.75;100.00
10006;BME280;5042;42.626;23.382;2023-05-09T02:41:16;94641.25;;;13.60;100.00
10006;BME280;5042;42.626;23.382;2023-05-09T02:43:43;94644.69;;;13.53;100.00
10006;BME280;5042;42.626;23.382;2023-05-09T02:46:10;94642.03;;;13.40;100.00
10006;BME280;5042;42.626;23.382;2023-05-09T02:48:37;94643.56;;;13.21;100.00
10006;BME280;5042;42.626;23.382;2023-05-09T02:51:04;94650.59;;;12.94;100.00
10006;BME280;5042;42.626;23.382;2023-05-09T02:53:30;94647.53;;;12.84;100.00
10006;BME280;5042;42.626;23.382;2023-05-09T02:55:57;94651.53;;;12.80;100.00
10006;BME280;5042;42.626;23.382;2023-05-09T02:58:25;94649.50;;;12.75;100.00
10006;BME280;5042;42.626;23.382;2023-05-09T03:00:52;94652.69;;;12.64;100.00
10006;BME280;5042;42.626;23.382;2023-05-09T03:03:18;94648.63;;;12.61;100.00
10006;BME280;5042;42.626;23.382;2023-05-09T03:05:46;94643.00;;;12.71;100.00
10006;BME280;5042;42.626;23.382;2023-05-09T03:08:13;94653.34;;;12.72;100.00
10006;BME280;5042;42.626;23.382;2023-05-09T03:10:40;94658.38;;;12.67;100.00
10006;BME280;5042;42.626;23.382;2023-05-09T03:13:07;94643.84;;;12.37;100.00
10006;BME280;5042;42.626;23.382;2023-05-09T03:15:36;94661.09;;;12.46;100.00
10006;BME280;5042;42.626;23.382;2023-05-09T03:18:02;94667.56;;;12.50;100.00
10006;BME280;5042;42.626;23.382;2023-05-09T03:20:29;94676.09;;;12.52;100.00
10006;BME280;5042;42.626;23.382;2023-05-09T03:22:56;94678.47;;;12.47;100.00
10006;BME280;5042;42.626;23.382;2023-05-09T03:25:23;94683.75;;;12.47;100.00
10006;BME280;5042;42.626;23.382;2023-05-09T03:27:50;94681.97;;;12.54;100.00
10006;BME280;5042;42.626;23.382;2023-05-09T03:30:17;94697.56;;;12.56;100.00
10006;BME280;5042;42.626;23.382;2023-05-09T03:32:45;94686.38;;;12.47;100.00
10006;BME280;5042;42.626;23.382;2023-05-09T03:35:12;94703.16;;;12.46;100.00
10006;BME280;5042;42.626;23.382;2023-05-09T03:37:38;94686.94;;;12.42;100.00
10006;BME280;5042;42.626;23.382;2023-05-09T03:40:06;94700.09;;;12.42;100.00
10006;BME280;5042;42.626;23.382;2023-05-09T03:42:33;94695.88;;;12.48;100.00
10006;BME280;5042;42.626;23.382;2023-05-09T03:45:00;94702.84;;;12.62;100.00
10006;BME280;5042;42.626;23.382;2023-05-09T03:47:27;94705.06;;;12.59;100.00
10006;BME280;5042;42.626;23.382;2023-05-09T03:49:55;94703.00;;;12.54;100.00
10006;BME280;5042;42.626;23.382;2023-05-09T03:52:21;94712.13;;;12.58;100.00
10006;BME280;5042;42.626;23.382;2023-05-09T03:54:48;94695.09;;;12.54;100.00
10006;BME280;5042;42.626;23.382;2023-05-09T03:57:15;94700.81;;;12.58;100.00
10006;BME280;5042;42.626;23.382;2023-05-09T03:59:42;94705.22;;;12.57;100.00
10006;BME280;5042;42.626;23.382;2023-05-09T04:02:08;94701.63;;;12.58;100.00
10006;BME280;5042;42.626;23.382;2023-05-09T04:04:35;94700.06;;;12.70;100.00
10006;BME280;5042;42.626;23.382;2023-05-09T04:07:03;94704.88;;;12.67;100.00
10006;BME280;5042;42.626;23.382;2023-05-09T04:09:30;94708.69;;;12.58;100.00
10006;BME280;5042;42.626;23.382;2023-05-09T04:11:57;94711.69;;;12.55;100.00
10006;BME280;5042;42.626;23.382;2023-05-09T04:14:24;94707.69;;;12.59;100.00
10006;BME280;5042;42.626;23.382;2023-05-09T04:16:51;94699.97;;;12.57;100.00
10006;BME280;5042;42.626;23.382;2023-05-09T04:19:17;94704.88;;;12.60;100.00
10006;BME280;5042;42.626;23.382;2023-05-09T04:21:44;94701.75;;;12.50;100.00
10006;BME280;5042;42.626;23.382;2023-05-09T04:24:12;94706.09;;;12.64;100.00
10006;BME280;5042;42.626;23.382;2023-05-09T04:26:39;94707.00;;;12.85;100.00
10006;BME280;5042;42.626;23.382;2023-05-09T04:29:06;94702.59;;;12.92;100.00
10006;BME280;5042;42.626;23.382;2023-05-09T04:31:33;94694.97;;;13.04;100.00
10006;BME280;5042;42.626;23.382;2023-05-09T04:34:01;94698.66;;;13.23;100.00
10006;BME280;5042;42.626;23.382;2023-05-09T04:36:27;94701.91;;;13.25;100.00
10006;BME280;5042;42.626;23.382;2023-05-09T04:38:54;94702.09;;;13.23;100.00
10006;BME280;5042;42.626;23.382;2023-05-09T04:41:22;94702.06;;;13.16;100.00
10006;BME280;5042;42.626;23.382;2023-05-09T04:43:49;94704.28;;;13.06;100.00
10006;BME280;5042;42.626;23.382;2023-05-09T04:46:16;94708.25;;;12.89;100.00
10006;BME280;5042;42.626;23.382;2023-05-09T04:48:43;94703.53;;;12.78;100.00
10006;BME280;5042;42.626;23.382;2023-05-09T04:51:10;94714.25;;;12.76;100.00
10006;BME280;5042;42.626;23.382;2023-05-09T04:53:36;94716.09;;;12.82;100.00
10006;BME280;5042;42.626;23.382;2023-05-09T04:56:03;94713.88;;;12.86;100.00
10006;BME280;5042;42.626;23.382;2023-05-09T04:58:32;94703.97;;;12.88;100.00
10006;BME280;5042;42.626;23.382;2023-05-09T05:00:58;94714.91;;;12.85;100.00
10006;BME280;5042;42.626;23.382;2023-05-09T05:03:25;94712.31;;;12.91;100.00
10006;BME280;5042;42.626;23.382;2023-05-09T05:05:52;94713.13;;;12.92;100.00
10006;BME280;5042;42.626;23.382;2023-05-09T05:08:18;94711.56;;;13.04;100.00
10006;BME280;5042;42.626;23.382;2023-05-09T05:10:45;94705.13;;;13.13;100.00
10006;BME280;5042;42.626;23.382;2023-05-09T05:13:13;94710.56;;;13.05;100.00
10006;BME280;5042;42.626;23.382;2023-05-09T05:15:41;94699.22;;;13.11;100.00
10006;BME280;5042;42.626;23.382;2023-05-09T05:18:08;94709.75;;;13.11;100.00
10006;BME280;5042;42.626;23.382;2023-05-09T05:20:35;94715.38;;;13.02;100.00
10006;BME280;5042;42.626;23.382;2023-05-09T05:23:01;94707.63;;;12.87;100.00
10006;BME280;5042;42.626;23.382;2023-05-09T05:25:28;94714.72;;;12.93;100.00
10006;BME280;5042;42.626;23.382;2023-05-09T05:27:55;94693.69;;;12.93;100.00
10006;BME280;5042;42.626;23.382;2023-05-09T05:30:22;94717.13;;;12.88;100.00
10006;BME280;5042;42.626;23.382;2023-05-09T05:32:50;94706.63;;;12.88;100.00
10006;BME280;5042;42.626;23.382;2023-05-09T05:35:17;94674.19;;;12.81;100.00
10006;BME280;5042;42.626;23.382;2023-05-09T05:37:46;94721.69;;;13.07;100.00
10006;BME280;5042;42.626;23.382;2023-05-09T05:40:13;94720.75;;;13.22;100.00
10006;BME280;5042;42.626;23.382;2023-05-09T05:42:40;94716.47;;;13.21;100.00
10006;BME280;5042;42.626;23.382;2023-05-09T05:45:09;94723.91;;;13.04;100.00
10006;BME280;5042;42.626;23.382;2023-05-09T05:47:36;94711.78;;;13.09;100.00
10006;BME280;5042;42.626;23.382;2023-05-09T05:50:05;94703.06;;;13.09;100.00
10006;BME280;5042;42.626;23.382;2023-05-09T05:52:35;94718.03;;;13.02;100.00
10006;BME280;5042;42.626;23.382;2023-05-09T05:55:03;94725.25;;;12.93;100.00
10006;BME280;5042;42.626;23.382;2023-05-09T05:57:29;94722.47;;;13.01;100.00
10006;BME280;5042;42.626;23.382;2023-05-09T05:59:56;94724.50;;;12.99;100.00
10006;BME280;5042;42.626;23.382;2023-05-09T06:02:23;94718.81;;;13.02;100.00
10006;BME280;5042;42.626;23.382;2023-05-09T06:04:50;94717.28;;;13.14;100.00
10006;BME280;5042;42.626;23.382;2023-05-09T06:07:18;94705.88;;;13.07;100.00
10006;BME280;5042;42.626;23.382;2023-05-09T06:09:44;94716.88;;;13.18;100.00
10006;BME280;5042;42.626;23.382;2023-05-09T06:12:11;94717.50;;;13.20;100.00
10006;BME280;5042;42.626;23.382;2023-05-09T06:14:40;94720.13;;;13.20;100.00
10006;BME280;5042;42.626;23.382;2023-05-09T06:17:07;94716.81;;;13.04;100.00
10006;BME280;5042;42.626;23.382;2023-05-09T06:19:34;94725.38;;;13.13;100.00
10006;BME280;5042;42.626;23.382;2023-05-09T06:22:01;94710.44;;;13.27;100.00
10006;BME280;5042;42.626;23.382;2023-05-09T06:24:29;94713.75;;;13.42;100.00
10006;BME280;5042;42.626;23.382;2023-05-09T06:26:56;94706.47;;;13.44;100.00
10006;BME280;5042;42.626;23.382;2023-05-09T06:29:23;94717.41;;;13.41;100.00
10006;BME280;5042;42.626;23.382;2023-05-09T06:31:50;94720.25;;;13.46;100.00
10006;BME280;5042;42.626;23.382;2023-05-09T06:34:16;94725.97;;;13.63;100.00
10006;BME280;5042;42.626;23.382;2023-05-09T06:36:43;94725.94;;;13.56;100.00
10006;BME280;5042;42.626;23.382;2023-05-09T06:39:10;94726.50;;;13.39;100.00
10006;BME280;5042;42.626;23.382;2023-05-09T06:41:38;94705.00;;;13.28;100.00
10006;BME280;5042;42.626;23.382;2023-05-09T06:44:05;94708.38;;;13.15;100.00
10006;BME280;5042;42.626;23.382;2023-05-09T06:46:32;94715.50;;;13.22;100.00
10006;BME280;5042;42.626;23.382;2023-05-09T06:48:58;94713.94;;;13.34;100.00
10006;BME280;5042;42.626;23.382;2023-05-09T06:51:26;94718.38;;;13.40;100.00
10006;BME280;5042;42.626;23.382;2023-05-09T06:53:52;94712.28;;;13.33;100.00
10006;BME280;5042;42.626;23.382;2023-05-09T06:56:19;94709.59;;;13.26;100.00
10006;BME280;5042;42.626;23.382;2023-05-09T06:58:48;94711.75;;;13.51;100.00
10006;BME280;5042;42.626;23.382;2023-05-09T07:01:15;94715.03;;;13.73;100.00
10006;BME280;5042;42.626;23.382;2023-05-09T07:03:42;94714.84;;;13.81;100.00
10006;BME280;5042;42.626;23.382;2023-05-09T07:06:10;94713.03;;;13.95;100.00
10006;BME280;5042;42.626;23.382;2023-05-09T07:08:37;94708.38;;;14.10;100.00
10006;BME280;5042;42.626;23.382;2023-05-09T07:11:04;94704.09;;;14.09;100.00
10006;BME280;5042;42.626;23.382;2023-05-09T07:13:30;94711.59;;;14.26;100.00
10006;BME280;5042;42.626;23.382;2023-05-09T07:15:59;94703.69;;;14.32;100.00
10006;BME280;5042;42.626;23.382;2023-05-09T07:18:25;94709.19;;;14.57;100.00
10006;BME280;5042;42.626;23.382;2023-05-09T07:20:52;94705.69;;;14.83;100.00
10006;BME280;5042;42.626;23.382;2023-05-09T07:23:19;94715.66;;;14.61;100.00
10006;BME280;5042;42.626;23.382;2023-05-09T07:25:46;94715.84;;;14.80;100.00
10006;BME280;5042;42.626;23.382;2023-05-09T07:28:13;94701.22;;;14.71;100.00
10006;BME280;5042;42.626;23.382;2023-05-09T07:30:39;94709.19;;;14.64;100.00
10006;BME280;5042;42.626;23.382;2023-05-09T07:33:09;94712.19;;;14.81;100.00
10006;BME280;5042;42.626;23.382;2023-05-09T07:35:36;94703.06;;;14.70;100.00
10006;BME280;5042;42.626;23.382;2023-05-09T07:38:02;94715.16;;;15.04;100.00
10006;BME280;5042;42.626;23.382;2023-05-09T07:40:30;94717.38;;;15.14;100.00
10006;BME280;5042;42.626;23.382;2023-05-09T07:42:57;94711.63;;;15.24;100.00
10006;BME280;5042;42.626;23.382;2023-05-09T07:45:24;94719.84;;;15.02;100.00
10006;BME280;5042;42.626;23.382;2023-05-09T07:47:51;94723.09;;;14.98;100.00
10006;BME280;5042;42.626;23.382;2023-05-09T07:50:19;94710.94;;;14.90;100.00
10006;BME280;5042;42.626;23.382;2023-05-09T07:52:47;94718.00;;;15.03;100.00
10006;BME280;5042;42.626;23.382;2023-05-09T07:55:14;94723.88;;;15.12;100.00
10006;BME280;5042;42.626;23.382;2023-05-09T07:57:41;94721.78;;;15.20;100.00
10006;BME280;5042;42.626;23.382;2023-05-09T08:00:08;94721.88;;;14.94;100.00
10006;BME280;5042;42.626;23.382;2023-05-09T08:02:35;94718.28;;;14.68;100.00
10006;BME280;5042;42.626;23.382;2023-05-09T08:05:03;94721.13;;;14.47;100.00
10006;BME280;5042;42.626;23.382;2023-05-09T08:07:31;94683.22;;;14.34;100.00
10006;BME280;5042;42.626;23.382;2023-05-09T08:09:57;94718.50;;;14.67;100.00
10006;BME280;5042;42.626;23.382;2023-05-09T08:12:24;94706.31;;;14.79;100.00
10006;BME280;5042;42.626;23.382;2023-05-09T08:14:51;94720.31;;;14.79;100.00
10006;BME280;5042;42.626;23.382;2023-05-09T08:17:18;94716.84;;;14.86;100.00
10006;BME280;5042;42.626;23.382;2023-05-09T08:19:44;94714.59;;;14.89;100.00
10006;BME280;5042;42.626;23.382;2023-05-09T08:22:15;94723.94;;;14.85;100.00
10006;BME280;5042;42.626;23.382;2023-05-09T08:24:44;94721.09;;;14.80;100.00
10006;BME280;5042;42.626;23.382;2023-05-09T08:27:11;94727.03;;;14.49;100.00
10006;BME280;5042;42.626;23.382;2023-05-09T08:29:38;94721.97;;;14.27;100.00
10006;BME280;5042;42.626;23.382;2023-05-09T08:32:05;94717.91;;;14.18;100.00
10006;BME280;5042;42.626;23.382;2023-05-09T08:34:32;94702.06;;;14.05;100.00
10006;BME280;5042;42.626;23.382;2023-05-09T08:36:59;94715.25;;;14.05;100.00
10006;BME280;5042;42.626;23.382;2023-05-09T08:39:26;94712.84;;;13.96;100.00
10006;BME280;5042;42.626;23.382;2023-05-09T08:41:58;94711.41;;;13.87;100.00
10006;BME280;5042;42.626;23.382;2023-05-09T08:44:26;94713.84;;;13.95;100.00
10006;BME280;5042;42.626;23.382;2023-05-09T08:46:55;94710.59;;;13.93;100.00
10006;BME280;5042;42.626;23.382;2023-05-09T08:49:24;94713.84;;;13.89;100.00
10006;BME280;5042;42.626;23.382;2023-05-09T08:51:53;94706.94;;;13.81;100.00
10006;BME280;5042;42.626;23.382;2023-05-09T08:54:20;94663.53;;;13.64;100.00
10006;BME280;5042;42.626;23.382;2023-05-09T08:56:47;94703.91;;;13.91;100.00
10006;BME280;5042;42.626;23.382;2023-05-09T08:59:16;94709.38;;;13.83;100.00
10006;BME280;5042;42.626;23.382;2023-05-09T09:01:43;94686.19;;;13.45;100.00
10006;BME280;5042;42.626;23.382;2023-05-09T09:04:10;94689.88;;;13.57;100.00
10006;BME280;5042;42.626;23.382;2023-05-09T09:06:38;94707.53;;;13.70;100.00
10006;BME280;5042;42.626;23.382;2023-05-09T09:09:06;94710.31;;;13.48;100.00
10006;BME280;5042;42.626;23.382;2023-05-09T09:11:34;94717.72;;;13.25;100.00
10006;BME280;5042;42.626;23.382;2023-05-09T09:14:05;94720.50;;;13.16;100.00
10006;BME280;5042;42.626;23.382;2023-05-09T09:16:35;94706.72;;;13.08;100.00
10006;BME280;5042;42.626;23.382;2023-05-09T09:19:04;94709.13;;;13.03;100.00
10006;BME280;5042;42.626;23.382;2023-05-09T09:21:34;94712.50;;;12.90;100.00
10006;BME280;5042;42.626;23.382;2023-05-09T09:24:02;94712.50;;;12.90;100.00
10006;BME280;5042;42.626;23.382;2023-05-09T09:26:29;94711.50;;;12.91;100.00
10006;BME280;5042;42.626;23.382;2023-05-09T09:28:56;94703.50;;;12.71;100.00
10006;BME280;5042;42.626;23.382;2023-05-09T09:31:24;94722.84;;;12.91;100.00
10006;BME280;5042;42.626;23.382;2023-05-09T09:33:58;94699.28;;;12.77;100.00
10006;BME280;5042;42.626;23.382;2023-05-09T09:36:26;94724.66;;;12.98;100.00
10006;BME280;5042;42.626;23.382;2023-05-09T09:38:55;94703.00;;;12.89;100.00
10006;BME280;5042;42.626;23.382;2023-05-09T09:41:29;94716.00;;;13.04;100.00
10006;BME280;5042;42.626;23.382;2023-05-09T09:43:56;94673.84;;;12.84;100.00
10006;BME280;5042;42.626;23.382;2023-05-09T09:46:23;94710.16;;;13.08;100.00
10006;BME280;5042;42.626;23.382;2023-05-09T09:48:50;94718.94;;;13.22;100.00
10006;BME280;5042;42.626;23.382;2023-05-09T09:51:26;94721.25;;;13.45;100.00
10006;BME280;5042;42.626;23.382;2023-05-09T09:53:53;94719.44;;;13.52;100.00
10006;BME280;5042;42.626;23.382;2023-05-09T09:56:20;94714.41;;;13.71;100.00
10006;BME280;5042;42.626;23.382;2023-05-09T09:58:47;94719.50;;;13.79;100.00
10006;BME280;5042;42.626;23.382;2023-05-09T10:01:14;94714.63;;;13.83;100.00
10006;BME280;5042;42.626;23.382;2023-05-09T10:03:43;94728.84;;;13.82;100.00
10006;BME280;5042;42.626;23.382;2023-05-09T10:06:11;94715.84;;;13.73;100.00
10006;BME280;5042;42.626;23.382;2023-05-09T10:08:43;94668.56;;;13.32;100.00
10006;BME280;5042;42.626;23.382;2023-05-09T10:11:11;94700.56;;;13.42;100.00
10006;BME280;5042;42.626;23.382;2023-05-09T10:13:38;94720.59;;;13.30;100.00
10006;BME280;5042;42.626;23.382;2023-05-09T10:16:05;94705.53;;;13.24;100.00
10006;BME280;5042;42.626;23.382;2023-05-09T10:18:34;94721.84;;;13.47;100.00
10006;BME280;5042;42.626;23.382;2023-05-09T10:21:01;94712.75;;;13.50;100.00
10006;BME280;5042;42.626;23.382;2023-05-09T10:23:31;94716.22;;;13.50;100.00
10006;BME280;5042;42.626;23.382;2023-05-09T10:26:04;94711.75;;;13.64;100.00
10006;BME280;5042;42.626;23.382;2023-05-09T10:28:37;94709.13;;;13.57;100.00
10006;BME280;5042;42.626;23.382;2023-05-09T10:31:11;94695.47;;;13.27;100.00
10006;BME280;5042;42.626;23.382;2023-05-09T10:33:47;94696.53;;;12.91;100.00
10006;BME280;5042;42.626;23.382;2023-05-09T10:36:16;94707.59;;;12.80;100.00
10006;BME280;5042;42.626;23.382;2023-05-09T10:38:45;94699.31;;;12.83;100.00
10006;BME280;5042;42.626;23.382;2023-05-09T10:41:15;94704.66;;;12.97;100.00
10006;BME280;5042;42.626;23.382;2023-05-09T10:43:43;94716.19;;;12.96;100.00
10006;BME280;5042;42.626;23.382;2023-05-09T10:46:11;94710.09;;;12.88;100.00
10006;BME280;5042;42.626;23.382;2023-05-09T10:48:39;94688.41;;;12.86;100.00
10006;BME280;5042;42.626;23.382;2023-05-09T10:51:07;94707.13;;;13.11;100.00
10006;BME280;5042;42.626;23.382;2023-05-09T10:53:41;94707.19;;;13.25;100.00
10006;BME280;5042;42.626;23.382;2023-05-09T10:56:09;94714.03;;;13.19;100.00
10006;BME280;5042;42.626;23.382;2023-05-09T10:58:48;94707.63;;;13.28;100.00
10006;BME280;5042;42.626;23.382;2023-05-09T11:01:27;94709.28;;;13.36;100.00
10006;BME280;5042;42.626;23.382;2023-05-09T11:03:55;94712.50;;;13.38;100.00
10006;BME280;5042;42.626;23.382;2023-05-09T11:06:46;94713.97;;;13.41;100.00
10006;BME280;5042;42.626;23.382;2023-05-09T11:09:22;94706.75;;;13.21;100.00
10006;BME280;5042;42.626;23.382;2023-05-09T11:11:51;94710.78;;;13.10;100.00
10006;BME280;5042;42.626;23.382;2023-05-09T11:14:29;94711.50;;;12.98;100.00
10006;BME280;5042;42.626;23.382;2023-05-09T11:16:57;94707.34;;;13.16;100.00
10006;BME280;5042;42.626;23.382;2023-05-09T11:19:58;94695.00;;;13.24;100.00
10006;BME280;5042;42.626;23.382;2023-05-09T11:22:28;94703.59;;;13.32;100.00
10006;BME280;5042;42.626;23.382;2023-05-09T11:25:02;94708.47;;;13.42;100.00
10006;BME280;5042;42.626;23.382;2023-05-09T11:27:36;94701.16;;;13.31;100.00
10006;BME280;5042;42.626;23.382;2023-05-09T11:30:07;94724.47;;;13.34;100.00
10006;BME280;5042;42.626;23.382;2023-05-09T11:32:41;94710.72;;;13.39;100.00
10006;BME280;5042;42.626;23.382;2023-05-09T11:35:09;94700.78;;;13.41;100.00
10006;BME280;5042;42.626;23.382;2023-05-09T11:37:43;94713.94;;;13.34;100.00
10006;BME280;5042;42.626;23.382;2023-05-09T11:40:11;94676.00;;;13.22;100.00
10006;BME280;5042;42.626;23.382;2023-05-09T11:42:41;94694.94;;;13.52;100.00
10006;BME280;5042;42.626;23.382;2023-05-09T11:45:11;94706.47;;;13.44;100.00
10006;BME280;5042;42.626;23.382;2023-05-09T11:47:38;94712.22;;;13.20;100.00
10006;BME280;5042;42.626;23.382;2023-05-09T11:50:06;94703.72;;;13.18;100.00
10006;BME280;5042;42.626;23.382;2023-05-09T11:52:34;94707.34;;;13.16;100.00
10006;BME280;5042;42.626;23.382;2023-05-09T11:55:01;94695.34;;;13.07;100.00
10006;BME280;5042;42.626;23.382;2023-05-09T11:57:28;94706.75;;;13.21;100.00
10006;BME280;5042;42.626;23.382;2023-05-09T11:59:55;94709.59;;;13.20;100.00
10006;BME280;5042;42.626;23.382;2023-05-09T12:02:24;94701.03;;;13.04;100.00
10006;BME280;5042;42.626;23.382;2023-05-09T12:04:50;94709.28;;;12.94;100.00
10006;BME280;5042;42.626;23.382;2023-05-09T12:07:18;94700.13;;;12.84;100.00
10006;BME280;5042;42.626;23.382;2023-05-09T12:09:48;94703.94;;;12.81;100.00
10006;BME280;5042;42.626;23.382;2023-05-09T12:12:15;94704.88;;;12.67;100.00
10006;BME280;5042;42.626;23.382;2023-05-09T12:14:45;94709.50;;;12.58;100.00
10006;BME280;5042;42.626;23.382;2023-05-09T12:17:12;94703.22;;;12.59;100.00
10006;BME280;5042;42.626;23.382;2023-05-09T12:19:40;94717.19;;;12.60;100.00
10006;BME280;5042;42.626;23.382;2023-05-09T12:22:07;94707.19;;;12.42;100.00
10006;BME280;5042;42.626;23.382;2023-05-09T12:24:35;94720.03;;;12.30;100.00
10006;BME280;5042;42.626;23.382;2023-05-09T12:27:02;94709.47;;;12.23;100.00
10006;BME280;5042;42.626;23.382;2023-05-09T12:29:32;94713.09;;;12.22;100.00
10006;BME280;5042;42.626;23.382;2023-05-09T12:31:59;94710.84;;;12.19;100.00
10006;BME280;5042;42.626;23.382;2023-05-09T12:34:26;94716.50;;;12.16;100.00
10006;BME280;5042;42.626;23.382;2023-05-09T12:36:54;94705.19;;;11.94;100.00
10006;BME280;5042;42.626;23.382;2023-05-09T12:39:24;94709.38;;;11.88;100.00
10006;BME280;5042;42.626;23.382;2023-05-09T12:41:51;94714.91;;;11.94;100.00
10006;BME280;5042;42.626;23.382;2023-05-09T12:44:20;94711.09;;;11.81;100.00
10006;BME280;5042;42.626;23.382;2023-05-09T12:46:57;94710.69;;;11.78;100.00
10006;BME280;5042;42.626;23.382;2023-05-09T12:49:24;94710.13;;;11.61;100.00
10006;BME280;5042;42.626;23.382;2023-05-09T12:51:53;94715.69;;;11.51;100.00
10006;BME280;5042;42.626;23.382;2023-05-09T12:54:22;94704.00;;;11.54;100.00
10006;BME280;5042;42.626;23.382;2023-05-09T12:56:50;94691.03;;;11.52;100.00
10006;BME280;5042;42.626;23.382;2023-05-09T12:59:21;94695.50;;;11.52;100.00
10006;BME280;5042;42.626;23.382;2023-05-09T13:01:52;94701.00;;;11.57;100.00